Pagrindinis puslapis
METAR-TAF:

METAR-TAF

Oro uostai :

Jamusukras, Dramblio Kaulo Krantas

platuma: 06-54N, ilguma: 005-21W, Aukštis: 196 m

Dabartinis oras

Ataskaita buvo paskelbta 58 minutes, ne 07:00 UTC
Vėjas 4 kt iš Vakarų/Pietvakarių
Temperatūra 26°C
Drėgmė 94%
Slėgis 1011 hPa
Matomumas: 8000 m
Mažai debesys ne aukštis 1100 ft

METAR: DIYO 180700Z 24004KT 8000 FEW011 26/25 Q1011 NOSIG

Laikas: 07:58 (07:58 UTC)

Prognozė

Ataskaita buvo paskelbta 2 valandos ir 58 minutes, ne 05:00 UTC
Prognozė galioja nuo 18 metu 06 UTC su 19 metu 06 UTC
Vėjas 6 kt iš Pietvakarių
Matomumas: 8000 m
Mažai debesys ne aukštis 1200 ft
Tikimybė 30% :
Laikinai
nuo 18 metu 15 UTC su 18 metu 20 UTC
Su prošvaistėmis ne aukštis 1300 ft
Mažai debesys ne aukštis 2000 ft, Liūtiniai kamuoliniai debesys.
perkūnija,

TAF: DIYO 180500Z 1806/1906 23006KT 8000 FEW012 PROB30 TEMPO 1815/1820 TS BKN013 FEW020CB

Orai ataskaitas ir orų prognozės (METAR, TAF).

turimą stotys yra geltonos ir raudonos taškus žemėlapyje.

Perkelti pele per norėdami pamatyti stoties vardą.

Tada spustelėkite, norėdami matyti oro stebėjimo ir prognozės.

Norėdami pakeisti žemėlapį: spustelėkite ant žalios mygtukų su juodo kryžiaus žemyn,; žalią mygtuką su brūkšneliu, jei norite nutolinti; arba žalių rodyklių gretimoms žemėlapius.


METAR-TAF: